createdAt,value
2022-08-05T00:03:25.352Z,21.61
2022-08-05T00:08:35.258Z,21.29
2022-08-05T00:14:02.176Z,20.11
2022-08-05T00:19:24.893Z,19.39
2022-08-05T00:25:12.787Z,18.87
2022-08-05T00:30:21.273Z,18.48
2022-08-05T00:35:37.537Z,18.15
2022-08-05T00:41:01.420Z,18.92
2022-08-05T00:46:03.849Z,21.28
2022-08-05T00:51:08.856Z,20.77
2022-08-05T00:56:31.352Z,19.41
2022-08-05T01:06:51.804Z,18.17
2022-08-05T01:12:09.111Z,17.82
2022-08-05T01:17:21.527Z,18.57
2022-08-05T01:22:28.125Z,20.84
2022-08-05T01:28:07.068Z,20.90
2022-08-05T01:33:12.477Z,19.40
2022-08-05T01:38:43.827Z,18.64
2022-08-05T01:43:49.896Z,18.12
2022-08-05T01:48:54.545Z,18.69
2022-08-05T01:53:59.466Z,20.88
2022-08-05T01:59:16.384Z,20.74
2022-08-05T02:04:21.008Z,19.33
2022-08-05T02:09:45.750Z,18.54
2022-08-05T02:15:12.486Z,17.97
2022-08-05T02:20:22.172Z,18.63
2022-08-05T02:25:33.089Z,20.77
2022-08-05T02:31:08.183Z,20.62
2022-08-05T02:36:20.603Z,19.09
2022-08-05T02:46:53.340Z,17.84
2022-08-05T02:52:06.270Z,18.56
2022-08-05T02:58:20.022Z,20.74
2022-08-05T03:02:52.810Z,20.52
2022-08-05T03:08:01.430Z,19.10
2022-08-05T03:13:16.572Z,18.30
2022-08-05T03:18:24.726Z,17.81
2022-08-05T03:23:34.637Z,18.57
2022-08-05T03:28:37.179Z,20.83
2022-08-05T03:33:51.310Z,21.03
2022-08-05T03:38:55.715Z,19.63
2022-08-05T03:44:08.533Z,18.87
2022-08-05T03:49:14.883Z,19.45
2022-08-05T03:56:03.615Z,21.52
2022-08-05T04:00:15.546Z,20.86
2022-08-05T04:05:23.133Z,19.84
2022-08-05T04:10:28.395Z,19.29
2022-08-05T04:16:03.362Z,19.00
2022-08-05T04:21:07.251Z,19.99
2022-08-05T04:26:18.638Z,22.18
2022-08-05T04:31:21.315Z,21.60
2022-08-05T04:36:49.827Z,20.71
2022-08-05T04:41:52.918Z,20.32
2022-08-05T04:46:59.282Z,20.14
2022-08-05T04:52:01.731Z,20.06
2022-08-05T04:57:04.246Z,20.94
2022-08-05T05:02:37.136Z,23.22
2022-08-05T05:07:35.608Z,22.73
2022-08-05T05:12:47.331Z,22.05
2022-08-05T05:17:56.335Z,21.77
2022-08-05T05:23:08.380Z,21.68
2022-08-05T05:28:25.317Z,21.69
2022-08-05T05:33:28.013Z,21.76
2022-08-05T05:39:00.172Z,21.86
2022-08-05T05:44:02.904Z,22.02
2022-08-05T05:49:28.847Z,22.22
2022-08-05T05:54:50.893Z,22.43
2022-08-05T06:00:01.330Z,22.68
2022-08-05T06:05:16.604Z,22.91
2022-08-05T06:10:52.558Z,23.16
2022-08-05T06:21:08.027Z,23.71
2022-08-05T06:26:25.138Z,24.03
2022-08-05T06:31:41.900Z,24.34
2022-08-05T06:36:57.657Z,24.64
2022-08-05T06:42:07.496Z,24.93
2022-08-05T06:47:30.265Z,25.21
2022-08-05T06:52:38.018Z,25.53
2022-08-05T06:58:03.578Z,25.83
2022-08-05T07:03:05.288Z,26.08
2022-08-05T07:08:12.111Z,26.31
2022-08-05T07:13:58.515Z,26.49
2022-08-05T07:19:02.864Z,26.68
2022-08-05T07:24:12.021Z,26.86
2022-08-05T07:29:15.910Z,27.05
2022-08-05T07:34:21.275Z,27.25
2022-08-05T07:40:04.463Z,27.46
2022-08-05T07:44:52.513Z,27.68
2022-08-05T07:49:54.898Z,27.86
2022-08-05T07:54:57.358Z,27.99
2022-08-05T08:00:35.386Z,28.10
2022-08-05T08:05:49.698Z,28.25
2022-08-05T08:10:55.410Z,28.39
2022-08-05T08:16:35.545Z,28.58
2022-08-05T08:21:20.581Z,28.83
2022-08-05T08:26:59.959Z,28.98
2022-08-05T08:32:45.577Z,29.15
2022-08-05T08:38:05.627Z,29.30
2022-08-05T08:45:04.465Z,29.44
2022-08-05T08:49:03.019Z,29.62
2022-08-05T08:53:58.799Z,29.73
2022-08-05T08:59:14.989Z,29.87
2022-08-05T09:04:30.455Z,30.05
2022-08-05T09:09:40.754Z,30.16
2022-08-05T09:14:58.676Z,30.29
2022-08-05T09:20:05.714Z,30.43
2022-08-05T09:25:24.574Z,30.56
2022-08-05T09:31:22.459Z,30.73
2022-08-05T09:36:59.716Z,30.80
2022-08-05T09:42:07.756Z,30.86
2022-08-05T09:52:29.104Z,31.08
2022-08-05T09:57:39.513Z,31.18
2022-08-05T10:02:45.058Z,31.30
2022-08-05T10:08:35.741Z,31.35
2022-08-05T10:13:44.053Z,31.46
2022-08-05T10:18:53.168Z,31.57
2022-08-05T10:24:15.051Z,31.64
2022-08-05T10:29:24.147Z,31.72
2022-08-05T10:34:45.248Z,31.84
2022-08-05T10:40:03.308Z,31.97
2022-08-05T10:45:40.044Z,32.05
2022-08-05T10:51:03.338Z,32.13
2022-08-05T10:56:21.405Z,32.25
2022-08-05T11:02:03.650Z,32.33
2022-08-05T11:07:11.258Z,32.37
2022-08-05T11:12:54.345Z,32.39
2022-08-05T11:18:27.292Z,32.51
2022-08-05T11:24:04.145Z,32.55
2022-08-05T11:29:21.900Z,32.58
2022-08-05T11:34:39.020Z,32.61
2022-08-05T11:40:02.845Z,32.74
2022-08-05T11:50:38.399Z,32.93
2022-08-05T11:56:01.248Z,33.07
2022-08-05T12:01:08.321Z,33.26
2022-08-05T12:06:16.672Z,33.53
2022-08-05T12:11:50.404Z,33.69
2022-08-05T12:18:03.077Z,33.84
2022-08-05T12:22:36.788Z,34.00
2022-08-05T12:28:03.326Z,34.20
2022-08-05T12:33:07.247Z,34.36
2022-08-05T12:38:30.196Z,34.42
2022-08-05T12:43:34.529Z,34.55
2022-08-05T12:48:42.617Z,34.67
2022-08-05T12:53:47.364Z,34.79
2022-08-05T12:59:21.094Z,34.78
2022-08-05T13:04:32.509Z,34.68
2022-08-05T13:09:45.893Z,34.74
2022-08-05T13:15:06.713Z,34.90
2022-08-05T13:20:40.964Z,35.02
2022-08-05T13:26:03.431Z,35.11
2022-08-05T13:31:14.438Z,35.34
2022-08-05T13:36:18.353Z,35.67
2022-08-05T13:41:20.936Z,35.89
2022-08-05T13:47:04.807Z,36.11
2022-08-05T13:52:15.794Z,36.38
2022-08-05T13:57:26.480Z,36.43
2022-08-05T14:02:55.182Z,36.25
2022-08-05T14:08:05.853Z,35.97
2022-08-05T14:13:11.072Z,35.53
2022-08-05T14:18:48.353Z,35.12
2022-08-05T14:23:57.157Z,34.97
2022-08-05T14:29:03.604Z,35.44
2022-08-05T14:34:06.031Z,36.10
2022-08-05T14:39:14.555Z,36.72
2022-08-05T14:44:27.874Z,37.25
2022-08-05T14:49:56.759Z,37.27
2022-08-05T14:55:02.560Z,37.33
2022-08-05T15:00:29.435Z,37.20
2022-08-05T15:06:12.948Z,37.00
2022-08-05T15:10:59.505Z,37.08
2022-08-05T15:16:05.946Z,37.58
2022-08-05T15:21:09.683Z,38.71
2022-08-05T15:26:12.137Z,39.30
2022-08-05T15:31:17.629Z,39.94
2022-08-05T15:43:45.843Z,42.10
2022-08-05T15:48:52.493Z,42.71
2022-08-05T15:54:34.476Z,43.00
2022-08-05T15:59:38.173Z,43.21
2022-08-05T16:05:11.239Z,43.05
2022-08-05T16:10:17.334Z,42.96
2022-08-05T16:15:35.701Z,42.53
2022-08-05T16:20:38.120Z,42.03
2022-08-05T16:26:11.011Z,40.94
2022-08-05T16:31:22.176Z,38.99
2022-08-05T16:36:44.589Z,37.55
2022-08-05T16:42:27.626Z,36.30
2022-08-05T16:47:28.918Z,35.24
2022-08-05T16:52:36.643Z,34.28
2022-08-05T16:57:59.883Z,33.51
2022-08-05T17:03:04.656Z,32.83
2022-08-05T17:13:37.658Z,31.46
2022-08-05T17:18:43.854Z,30.79
2022-08-05T17:24:04.370Z,30.26
2022-08-05T17:29:11.528Z,29.87
2022-08-05T17:34:17.847Z,29.57
2022-08-05T17:40:26.296Z,29.23
2022-08-05T17:45:38.465Z,28.95
2022-08-05T17:50:41.632Z,28.67
2022-08-05T17:55:44.399Z,28.41
2022-08-05T18:00:50.508Z,28.11
2022-08-05T18:05:56.515Z,27.82
2022-08-05T18:11:23.701Z,27.53
2022-08-05T18:16:51.503Z,27.22
2022-08-05T18:22:08.499Z,26.95
2022-08-05T18:27:18.728Z,26.66
2022-08-05T18:32:28.255Z,26.41
2022-08-05T18:37:40.305Z,26.12
2022-08-05T18:42:52.227Z,25.84
2022-08-05T18:47:56.429Z,25.58
2022-08-05T18:52:59.641Z,25.31
2022-08-05T18:58:03.665Z,25.06
2022-08-05T19:03:55.650Z,24.82
2022-08-05T19:09:08.434Z,24.62
2022-08-05T19:14:59.594Z,24.45
2022-08-05T19:19:37.288Z,24.29
2022-08-05T19:27:44.815Z,23.95
2022-08-05T19:32:47.485Z,23.73
2022-08-05T19:38:06.082Z,23.55
2022-08-05T19:43:09.838Z,23.38
2022-08-05T19:48:48.446Z,23.16
2022-08-05T19:54:05.303Z,22.99
2022-08-05T19:59:51.097Z,23.72
2022-08-05T20:04:34.781Z,25.89
2022-08-05T20:09:54.788Z,25.84
2022-08-05T20:15:13.602Z,24.65
2022-08-05T20:20:19.081Z,24.04
2022-08-05T20:25:24.699Z,23.57
2022-08-05T20:31:03.711Z,23.16
2022-08-05T20:36:22.364Z,22.83
2022-08-05T20:41:27.028Z,22.61
2022-08-05T20:50:05.430Z,22.40
2022-08-05T20:55:55.097Z,22.32
2022-08-05T21:00:51.888Z,22.31
2022-08-05T21:05:57.365Z,23.26
2022-08-05T21:11:01.641Z,25.52
2022-08-05T21:16:30.810Z,25.98
2022-08-05T21:21:44.232Z,24.92
2022-08-05T21:26:58.306Z,24.39
2022-08-05T21:32:02.666Z,24.10
2022-08-05T21:37:13.836Z,23.87
2022-08-05T21:42:40.881Z,24.47
2022-08-05T21:47:56.355Z,26.47
2022-08-05T21:53:04.549Z,26.15
2022-08-05T21:58:24.935Z,24.87
2022-08-05T22:04:14.337Z,24.24
2022-08-05T22:09:21.110Z,24.51
2022-08-05T22:14:37.324Z,25.65
2022-08-05T22:20:02.501Z,24.54
2022-08-05T22:25:31.025Z,25.16
2022-08-05T22:30:56.810Z,24.74
2022-08-05T22:36:23.992Z,24.76
2022-08-05T22:42:09.591Z,25.60
2022-08-05T22:52:47.314Z,25.92
2022-08-05T22:57:57.281Z,24.51
2022-08-05T23:03:00.995Z,25.49
2022-08-05T23:08:12.154Z,25.45
2022-08-05T23:13:16.683Z,25.21
2022-08-05T23:18:25.546Z,25.93
2022-08-05T23:23:39.179Z,24.98
2022-08-05T23:28:43.259Z,26.11
2022-08-05T23:34:05.323Z,25.77
2022-08-05T23:39:08.802Z,25.16
2022-08-05T23:44:11.345Z,26.19
2022-08-05T23:56:32.800Z,26.25
